الصفحة الرئيسية
METAR-TAF:

METAR-TAF

مطار :

Munda, New Georgia, جزر سولومون

دائرة عرض: 8-19-41S, خط طول: 157-15-47E, ارتفاع: 3 متر

مراقبة الطقس الحالي

تاريخ ووقت الإصدار 59 دقيقة قبل الساعة 21:00UTC
رياح هادئة
درجة الحرارة 26°درجة مئوية
الرطوبة 94%
ضغط 1013 hPa
الرؤية 10 كم أو أكثر
غيوم قليلة على ارتفاع 1700 قدم
غيوم متفرقة على ارتفاع 9000 قدم

METAR: AGGM 252100Z 00000KT 9999 FEW017 SCT090 26/25 Q1013

زمن: 08:59 (21:59 UTC)

توقعات

تاريخ ووقت الإصدار 4ساعات و 44 دقيقة قبل الساعة 17:15UTC
التوقعات صالحة من25 الساعة 18 UTC إلى 26 الساعة 18 UTC
ريح 8 عقدة من الشرق
الرؤية: 1011 متر
غيوم متفرقة على ارتفاع 1800 قدم
غيوم متفرقة على ارتفاع 3000 قدم

TAF: AGGM 251715Z 2518/2618 09008KT 9999 SCT018 SCT030 Q 1011 1013 1013 1011

أرصاد الطقس والتوقعات من أكثر من 4000 مطار (تقارير الطقس للمطار METAR والتنبؤ بالطقس بالمطارTAF).

المحطات المتاحة هي النقط الصفراء والحمراء على الخريطة.

حرك المؤشر فوق النقطة لمعرفة اسم المحطة.

ثم انقر لمعرفة أرصاد وتوقعات الطقس.

لتغيير الخارطة: اضغط على الأزرار الخضراء مع رمز الصليب الأسود للتكبير. على الزر الأخضر مع شرطة للتصغير، أو على الأسهم الخضراء للخرائط المجاورة.


METAR-TAF: